createdAt,value
2022-08-02T00:01:01.857Z,99914.81
2022-08-02T00:03:30.814Z,99906.47
2022-08-02T00:05:59.639Z,99910.41
2022-08-02T00:08:28.328Z,99914.78
2022-08-02T00:10:57.303Z,99830.56
2022-08-02T00:13:27.220Z,99919.19
2022-08-02T00:15:57.520Z,99902.69
2022-08-02T00:18:26.393Z,99910.03
2022-08-02T00:20:55.254Z,99915.19
2022-08-02T00:23:24.858Z,99913.13
2022-08-02T00:25:54.974Z,99917.13
2022-08-02T00:28:27.901Z,99922.13
2022-08-02T00:30:59.618Z,99922.75
2022-08-02T00:34:05.650Z,99902.69
2022-08-02T00:36:18.221Z,99908.53
2022-08-02T00:38:48.104Z,99918.56
2022-08-02T00:41:19.031Z,99924.81
2022-08-02T00:43:48.409Z,99916.47
2022-08-02T00:46:19.988Z,99921.91
2022-08-02T00:48:49.814Z,99912.06
2022-08-02T00:51:19.201Z,99871.31
2022-08-02T00:53:47.930Z,99908.28
2022-08-02T00:56:16.743Z,99925.66
2022-08-02T00:58:45.632Z,99925.28
2022-08-02T01:01:15.926Z,99911.66
2022-08-02T01:03:46.033Z,99910.66
2022-08-02T01:06:14.852Z,99921.06
2022-08-02T01:08:43.887Z,99908.09
2022-08-02T01:11:13.506Z,99913.13
2022-08-02T01:13:42.492Z,99919.59
2022-08-02T01:16:17.432Z,99914.84
2022-08-02T01:18:54.388Z,99917.09
2022-08-02T01:21:39.974Z,99917.31
2022-08-02T01:24:22.312Z,99920.00
2022-08-02T01:26:56.418Z,99914.38
2022-08-02T01:29:31.764Z,99912.72
2022-08-02T01:32:07.302Z,99914.16
2022-08-02T01:34:41.169Z,99912.50
2022-08-02T01:37:15.460Z,99909.81
2022-08-02T01:39:46.843Z,99916.69
2022-08-02T01:42:17.296Z,99912.31
2022-08-02T01:44:48.545Z,99895.13
2022-08-02T01:47:22.406Z,99891.59
2022-08-02T01:49:55.852Z,99866.72
2022-08-02T01:52:27.212Z,99906.84
2022-08-02T01:55:01.235Z,99904.78
2022-08-02T01:57:35.013Z,99883.44
2022-08-02T02:00:13.787Z,99896.63
2022-08-02T02:02:47.602Z,99905.63
2022-08-02T02:05:19.479Z,99909.41
2022-08-02T02:07:51.350Z,99878.19
2022-08-02T02:10:26.133Z,99898.06
2022-08-02T02:12:57.038Z,99898.06
2022-08-02T02:15:28.138Z,99899.31
2022-08-02T02:18:13.254Z,99893.69
2022-08-02T02:20:43.735Z,99888.44
2022-08-02T02:23:13.687Z,99890.94
2022-08-02T02:25:46.739Z,99896.59
2022-08-02T02:28:23.123Z,99901.84
2022-08-02T02:30:59.876Z,99891.78
2022-08-02T02:33:31.890Z,99881.75
2022-08-02T02:36:02.118Z,99885.53
2022-08-02T02:38:34.061Z,99886.97
2022-08-02T02:41:06.772Z,99896.78
2022-08-02T02:43:39.176Z,99891.78
2022-08-02T02:46:11.293Z,99892.44
2022-08-02T02:48:40.949Z,99894.72
2022-08-02T02:51:14.010Z,99889.09
2022-08-02T02:54:30.265Z,99895.16
2022-08-02T02:56:33.924Z,99882.63
2022-08-02T02:59:03.536Z,99886.78
2022-08-02T03:01:55.473Z,99881.75
2022-08-02T03:04:22.778Z,99880.91
2022-08-02T03:06:51.786Z,99884.72
2022-08-02T03:09:20.623Z,99896.84
2022-08-02T03:11:49.883Z,99890.97
2022-08-02T03:14:18.943Z,99864.41
2022-08-02T03:16:52.285Z,99902.00
2022-08-02T03:19:24.294Z,99902.47
2022-08-02T03:22:02.129Z,99898.47
2022-08-02T03:24:30.900Z,99884.91
2022-08-02T03:26:59.886Z,99911.88
2022-08-02T03:29:31.489Z,99901.63
2022-08-02T03:32:05.370Z,99909.13
2022-08-02T03:34:34.362Z,99887.00
2022-08-02T03:37:04.680Z,99906.00
2022-08-02T03:39:34.851Z,99908.09
2022-08-02T03:42:03.843Z,99871.94
2022-08-02T03:44:34.194Z,99898.50
2022-08-02T03:47:04.705Z,99890.16
2022-08-02T03:49:34.068Z,99899.34
2022-08-02T03:52:04.130Z,99899.09
2022-08-02T03:54:34.751Z,99898.47
2022-08-02T03:57:15.185Z,99890.16
2022-08-02T03:59:45.282Z,99900.56
2022-08-02T04:02:15.656Z,99902.25
2022-08-02T04:04:44.381Z,99839.97
2022-08-02T04:07:13.171Z,99898.06
2022-08-02T04:09:41.864Z,99869.84
2022-08-02T04:12:12.234Z,99898.91
2022-08-02T04:14:41.172Z,99898.47
2022-08-02T04:17:12.321Z,99900.16
2022-08-02T04:19:48.493Z,99886.38
2022-08-02T04:22:20.688Z,99899.72
2022-08-02T04:24:53.217Z,99905.59
2022-08-02T04:27:50.551Z,99900.34
2022-08-02T04:30:17.316Z,99903.50
2022-08-02T04:32:47.092Z,99917.31
2022-08-02T04:35:19.979Z,99898.91
2022-08-02T04:38:08.195Z,99922.72
2022-08-02T04:40:38.696Z,99921.91
2022-08-02T04:43:08.786Z,99923.63
2022-08-02T04:45:38.536Z,99939.06
2022-08-02T04:48:08.251Z,99944.50
2022-08-02T04:50:38.308Z,99944.69
2022-08-02T04:53:07.249Z,99942.75
2022-08-02T04:55:36.393Z,99941.13
2022-08-02T04:58:23.794Z,99945.72
2022-08-02T05:00:54.635Z,99938.59
2022-08-02T05:03:24.125Z,99943.56
2022-08-02T05:05:54.556Z,99951.31
2022-08-02T05:08:23.425Z,99942.59
2022-08-02T05:10:52.211Z,99939.88
2022-08-02T05:13:21.106Z,99957.50
2022-08-02T05:15:50.928Z,99941.31
2022-08-02T05:18:20.163Z,99925.41
2022-08-02T05:20:49.121Z,99938.03
2022-08-02T05:23:19.284Z,99926.63
2022-08-02T05:25:48.215Z,99932.94
2022-08-02T05:28:17.328Z,99911.09
2022-08-02T05:30:48.190Z,99941.09
2022-08-02T05:33:18.562Z,99943.84
2022-08-02T05:35:47.419Z,99945.16
2022-08-02T05:38:16.144Z,99879.75
2022-08-02T05:40:54.900Z,99950.88
2022-08-02T05:43:24.587Z,99942.09
2022-08-02T05:45:54.658Z,99957.81
2022-08-02T05:48:27.843Z,99967.03
2022-08-02T05:51:05.399Z,99933.00
2022-08-02T05:53:40.060Z,99961.16
2022-08-02T05:56:24.089Z,99968.78
2022-08-02T05:58:57.624Z,99969.03
2022-08-02T06:01:33.781Z,99967.75
2022-08-02T06:04:06.357Z,99962.81
2022-08-02T06:06:36.175Z,99965.13
2022-08-02T06:09:15.615Z,99950.63
2022-08-02T06:12:02.106Z,99969.50
2022-08-02T06:14:36.036Z,99970.56
2022-08-02T06:17:05.947Z,99965.63
2022-08-02T06:19:51.032Z,99950.22
2022-08-02T06:22:33.597Z,99955.16
2022-08-02T06:25:06.762Z,99948.03
2022-08-02T06:27:57.051Z,99951.75
2022-08-02T06:30:26.336Z,99952.59
2022-08-02T06:32:55.718Z,99949.78
2022-08-02T06:35:32.536Z,99957.34
2022-08-02T06:38:03.309Z,99949.84
2022-08-02T06:40:34.635Z,99953.50
2022-08-02T06:43:24.582Z,99946.72
2022-08-02T06:45:53.631Z,99937.75
2022-08-02T06:48:22.788Z,99938.94
2022-08-02T06:50:51.751Z,99931.28
2022-08-02T06:53:20.579Z,99937.84
2022-08-02T06:55:49.415Z,99902.53
2022-08-02T06:58:18.289Z,99934.00
2022-08-02T07:00:49.584Z,99941.75
2022-08-02T07:03:19.557Z,99929.28
2022-08-02T07:05:49.234Z,99908.78
2022-08-02T07:08:18.222Z,99887.53
2022-08-02T07:10:47.224Z,99927.63
2022-08-02T07:13:15.986Z,99937.06
2022-08-02T07:15:49.051Z,99901.50
2022-08-02T07:18:20.277Z,99946.66
2022-08-02T07:20:49.079Z,99947.41
2022-08-02T07:23:18.494Z,99949.78
2022-08-02T07:26:02.290Z,99944.81
2022-08-02T07:28:33.801Z,99945.34
2022-08-02T07:31:02.715Z,99960.81
2022-08-02T07:33:38.812Z,99960.56
2022-08-02T07:36:22.514Z,99966.13
2022-08-02T07:38:51.845Z,99972.13
2022-08-02T07:41:22.631Z,99961.41
2022-08-02T07:43:52.036Z,99966.56
2022-08-02T07:46:21.069Z,99964.88
2022-08-02T07:48:53.549Z,99970.56
2022-08-02T07:51:22.687Z,99962.84
2022-08-02T07:54:03.873Z,99975.44
2022-08-02T07:56:33.814Z,99977.84
2022-08-02T07:59:03.289Z,99982.03
2022-08-02T08:01:32.503Z,99987.56
2022-08-02T08:04:03.170Z,99998.53
2022-08-02T08:06:33.434Z,99989.88
2022-08-02T08:09:02.145Z,100003.69
2022-08-02T08:11:31.050Z,100009.19
2022-08-02T08:13:59.875Z,100002.91
2022-08-02T08:16:29.538Z,100007.53
2022-08-02T08:18:58.522Z,99995.72
2022-08-02T08:21:29.759Z,100003.22
2022-08-02T08:23:59.141Z,99984.88
2022-08-02T08:26:28.030Z,100009.06
2022-08-02T08:28:57.137Z,100003.06
2022-08-02T08:31:26.009Z,99984.00
2022-08-02T08:33:54.951Z,100002.53
2022-08-02T08:36:24.532Z,100005.50
2022-08-02T08:38:54.796Z,99997.66
2022-08-02T08:41:23.674Z,99994.63
2022-08-02T08:43:53.481Z,99992.97
2022-08-02T08:46:28.148Z,100000.16
2022-08-02T08:49:04.650Z,99983.41
2022-08-02T08:51:39.376Z,99997.34
2022-08-02T08:54:11.859Z,99962.63
2022-08-02T08:56:42.547Z,100011.09
2022-08-02T08:59:11.958Z,100006.38
2022-08-02T09:01:50.191Z,99988.66
2022-08-02T09:04:19.955Z,99991.06
2022-08-02T09:06:48.953Z,100020.25
2022-08-02T09:09:19.299Z,100015.56
2022-08-02T09:11:48.114Z,100010.34
2022-08-02T09:14:28.490Z,100022.19
2022-08-02T09:17:08.261Z,100026.06
2022-08-02T09:19:37.410Z,100030.63
2022-08-02T09:22:08.866Z,100046.06
2022-08-02T09:24:48.074Z,100010.25
2022-08-02T09:27:19.269Z,100052.44
2022-08-02T09:32:46.621Z,100042.31
2022-08-02T09:35:15.947Z,100032.72
2022-08-02T09:37:48.629Z,100035.69
2022-08-02T09:40:36.341Z,100029.56
2022-08-02T09:43:05.338Z,100026.66
2022-08-02T09:45:35.380Z,99979.00
2022-08-02T09:48:04.972Z,99998.03
2022-08-02T09:50:33.750Z,100026.06
2022-08-02T09:53:04.172Z,100025.69
2022-08-02T09:55:35.481Z,100018.59
2022-08-02T09:58:18.748Z,100029.13
2022-08-02T10:00:55.467Z,100022.56
2022-08-02T10:03:28.101Z,100029.19
2022-08-02T10:06:04.519Z,100028.09
2022-08-02T10:08:34.477Z,100021.94
2022-08-02T10:11:04.891Z,100029.13
2022-08-02T10:13:35.607Z,100030.91
2022-08-02T10:16:06.442Z,100020.72
2022-08-02T10:18:39.510Z,100032.31
2022-08-02T10:21:13.555Z,100014.41
2022-08-02T10:23:45.048Z,100028.78
2022-08-02T10:26:21.143Z,100017.47
2022-08-02T10:28:51.154Z,100029.19
2022-08-02T10:31:32.430Z,100038.50
2022-08-02T10:34:06.885Z,100031.91
2022-08-02T10:36:38.072Z,100032.13
2022-08-02T10:39:07.918Z,100022.72
2022-08-02T10:41:47.397Z,100031.31
2022-08-02T10:44:28.031Z,100031.72
2022-08-02T10:47:24.488Z,100025.44
2022-08-02T10:49:55.492Z,100021.88
2022-08-02T10:52:25.153Z,100026.25
2022-08-02T10:54:58.668Z,99866.25
2022-08-02T10:57:31.346Z,100022.31
2022-08-02T11:00:03.916Z,100029.78
2022-08-02T11:02:39.897Z,100034.94
2022-08-02T11:05:15.644Z,100030.06
2022-08-02T11:07:49.416Z,100010.59
2022-08-02T11:10:34.171Z,100042.31
2022-08-02T11:13:07.804Z,100044.72
2022-08-02T11:15:53.787Z,100038.28
2022-08-02T11:18:23.862Z,100054.41
2022-08-02T11:21:24.800Z,100060.06
2022-08-02T11:23:54.368Z,100055.66
2022-08-02T11:26:45.472Z,100043.03
2022-08-02T11:29:16.609Z,100048.78
2022-08-02T11:31:46.606Z,100057.16
2022-08-02T11:34:36.675Z,100042.19
2022-08-02T11:37:07.739Z,100037.81
2022-08-02T11:39:37.050Z,100041.97
2022-08-02T11:42:07.052Z,100011.03
2022-08-02T11:44:43.544Z,100038.19
2022-08-02T11:47:12.724Z,100019.41
2022-08-02T11:49:42.907Z,100031.50
2022-08-02T11:52:12.353Z,100031.28
2022-08-02T11:54:43.192Z,100014.66
2022-08-02T11:57:19.652Z,100033.53
2022-08-02T11:59:53.172Z,100026.00
2022-08-02T12:02:23.800Z,100027.59
2022-08-02T12:04:58.434Z,100025.03
2022-08-02T12:07:34.929Z,99982.41
2022-08-02T12:10:07.189Z,100024.25
2022-08-02T12:12:48.891Z,100026.47
2022-08-02T12:15:31.207Z,100027.25
2022-08-02T12:18:18.074Z,100022.63
2022-08-02T12:20:47.221Z,100022.16
2022-08-02T12:23:16.133Z,100019.84
2022-08-02T12:25:44.970Z,100002.56
2022-08-02T12:28:17.784Z,100023.47
2022-08-02T12:30:53.894Z,100013.06
2022-08-02T12:33:24.271Z,100017.41
2022-08-02T12:35:54.497Z,100021.38
2022-08-02T12:38:23.764Z,100020.13
2022-08-02T12:40:52.732Z,100020.97
2022-08-02T12:43:23.759Z,100028.19
2022-08-02T12:45:56.657Z,100012.97
2022-08-02T12:48:37.435Z,100025.84
2022-08-02T12:51:50.827Z,99951.19
2022-08-02T12:54:19.127Z,100019.06
2022-08-02T12:56:48.662Z,100015.50
2022-08-02T12:59:18.743Z,100008.31
2022-08-02T13:01:49.178Z,100018.72
2022-08-02T13:04:18.184Z,100012.94
2022-08-02T13:06:46.962Z,100015.03
2022-08-02T13:09:18.188Z,100002.56
2022-08-02T13:11:47.198Z,100017.56
2022-08-02T13:14:16.714Z,100011.59
2022-08-02T13:16:47.049Z,100028.16
2022-08-02T13:19:18.065Z,100021.63
2022-08-02T13:22:11.171Z,100001.00
2022-08-02T13:24:54.979Z,100040.75
2022-08-02T13:27:28.573Z,100039.00
2022-08-02T13:29:58.970Z,100029.72
2022-08-02T13:32:29.052Z,100033.59
2022-08-02T13:35:00.260Z,100033.63
2022-08-02T13:37:29.303Z,100029.66
2022-08-02T13:40:21.069Z,100025.13
2022-08-02T13:42:48.741Z,100039.81
2022-08-02T13:45:18.179Z,100043.03
2022-08-02T13:48:03.684Z,100037.47
2022-08-02T13:50:36.074Z,100038.00
2022-08-02T13:53:04.996Z,100058.16
2022-08-02T13:55:34.052Z,100047.31
2022-08-02T13:58:05.060Z,100019.09
2022-08-02T14:00:34.683Z,100043.81
2022-08-02T14:03:12.221Z,100024.19
2022-08-02T14:05:48.629Z,100042.38
2022-08-02T14:08:19.282Z,100025.25
2022-08-02T14:13:18.022Z,100032.97
2022-08-02T14:15:47.959Z,100017.34
2022-08-02T14:18:17.764Z,100026.66
2022-08-02T14:20:48.178Z,100002.94
2022-08-02T14:23:17.288Z,100020.22
2022-08-02T14:25:46.397Z,100009.50
2022-08-02T14:28:15.416Z,100021.69
2022-08-02T14:30:44.766Z,100024.09
2022-08-02T14:33:13.736Z,100020.25
2022-08-02T14:35:42.694Z,99931.97
2022-08-02T14:38:13.009Z,100015.84
2022-08-02T14:40:41.828Z,100020.88
2022-08-02T14:43:34.861Z,100016.78
2022-08-02T14:46:04.257Z,99991.03
2022-08-02T14:48:33.536Z,99998.31
2022-08-02T14:51:03.723Z,99947.69
2022-08-02T14:53:38.104Z,100029.69
2022-08-02T14:56:18.034Z,100036.81
2022-08-02T14:58:47.162Z,100018.50
2022-08-02T15:01:16.289Z,100016.84
2022-08-02T15:03:45.274Z,99975.78
2022-08-02T15:06:14.197Z,100020.88
2022-08-02T15:08:44.700Z,100010.03
2022-08-02T15:11:13.808Z,100001.88
2022-08-02T15:13:42.937Z,100020.63
2022-08-02T15:16:12.106Z,100019.19
2022-08-02T15:18:41.275Z,100030.16
2022-08-02T15:21:31.669Z,100024.09
2022-08-02T15:24:00.785Z,100030.53
2022-08-02T15:26:29.677Z,100027.53
2022-08-02T15:28:58.563Z,100035.28
2022-08-02T15:31:33.209Z,100020.09
2022-08-02T15:34:02.969Z,100017.16
2022-08-02T15:36:32.010Z,100033.34
2022-08-02T15:39:02.857Z,100031.41
2022-08-02T15:41:32.234Z,100012.44
2022-08-02T15:44:02.036Z,100023.19
2022-08-02T15:46:36.999Z,100032.06
2022-08-02T15:49:06.261Z,100024.38
2022-08-02T15:51:35.316Z,99964.41
2022-08-02T15:54:05.752Z,100024.28
2022-08-02T15:56:34.707Z,100034.31
2022-08-02T15:59:03.792Z,100017.69
2022-08-02T16:01:37.914Z,99971.94
2022-08-02T16:04:08.546Z,100030.31
2022-08-02T16:06:38.957Z,99943.97
2022-08-02T16:09:09.570Z,100039.00
2022-08-02T16:11:39.071Z,100040.81
2022-08-02T16:14:09.735Z,100013.72
2022-08-02T16:16:40.420Z,100041.09
2022-08-02T16:19:46.463Z,100038.50
2022-08-02T16:21:59.130Z,100040.56
2022-08-02T16:24:32.047Z,100050.66
2022-08-02T16:27:01.577Z,100040.03
2022-08-02T16:29:33.576Z,100049.88
2022-08-02T16:32:02.789Z,100033.50
2022-08-02T16:34:45.102Z,100060.31
2022-08-02T16:37:20.539Z,100061.50
2022-08-02T16:39:51.016Z,100054.97
2022-08-02T16:42:25.345Z,100066.22
2022-08-02T16:44:55.027Z,100060.06
2022-08-02T16:47:42.749Z,100053.50
2022-08-02T16:50:12.923Z,100045.41
2022-08-02T16:52:41.921Z,100055.88
2022-08-02T16:55:12.527Z,100054.94
2022-08-02T16:57:42.786Z,100042.00
2022-08-02T17:00:16.180Z,100047.44
2022-08-02T17:02:47.062Z,100062.53
2022-08-02T17:05:16.951Z,100055.81
2022-08-02T17:08:07.696Z,100056.84
2022-08-02T17:10:37.564Z,100054.50
2022-08-02T17:13:11.094Z,100061.13
2022-08-02T17:16:16.347Z,100067.22
2022-08-02T17:21:12.093Z,100069.09
2022-08-02T17:24:06.339Z,100063.59
2022-08-02T17:26:32.119Z,100059.06
2022-08-02T17:29:15.915Z,100064.19
2022-08-02T17:32:04.960Z,100067.47
2022-08-02T17:34:35.681Z,100064.69
2022-08-02T17:37:06.495Z,100062.34
2022-08-02T17:39:43.136Z,100066.28
2022-08-02T17:42:23.767Z,100078.91
2022-08-02T17:44:54.032Z,100073.13
2022-08-02T17:47:30.933Z,100079.69
2022-08-02T17:50:00.690Z,100079.81
2022-08-02T17:52:51.775Z,100073.94
2022-08-02T17:55:19.374Z,100084.16
2022-08-02T17:57:57.844Z,100074.16
2022-08-02T18:00:33.903Z,100084.09
2022-08-02T18:03:06.089Z,100083.44
2022-08-02T18:05:53.180Z,100082.94
2022-08-02T18:08:24.541Z,100086.91
2022-08-02T18:10:54.474Z,100088.88
2022-08-02T18:13:25.364Z,100072.84
2022-08-02T18:15:59.366Z,100087.72
2022-08-02T18:18:29.706Z,100093.50
2022-08-02T18:21:10.620Z,100087.88
2022-08-02T18:23:48.697Z,100083.81
2022-08-02T18:26:20.832Z,100090.28
2022-08-02T18:28:51.624Z,100006.94
2022-08-02T18:31:23.223Z,100068.47
2022-08-02T18:34:01.973Z,100086.81
2022-08-02T18:36:32.999Z,100057.16
2022-08-02T18:39:07.761Z,100098.50
2022-08-02T18:41:38.047Z,100106.81
2022-08-02T18:44:10.749Z,100097.97
2022-08-02T18:46:45.033Z,100097.47
2022-08-02T18:49:15.401Z,100099.84
2022-08-02T18:51:46.521Z,100067.38
2022-08-02T18:54:15.828Z,100073.91
2022-08-02T18:56:50.383Z,100094.06
2022-08-02T18:59:21.378Z,100100.16
2022-08-02T19:01:52.780Z,100100.31
2022-08-02T19:04:27.493Z,100104.25
2022-08-02T19:07:07.584Z,100107.13
2022-08-02T19:09:39.898Z,100112.56
2022-08-02T19:12:11.525Z,100099.66
2022-08-02T19:14:42.423Z,100096.47
2022-08-02T19:17:53.089Z,100090.38
2022-08-02T19:20:00.809Z,100084.75
2022-08-02T19:22:30.707Z,100096.28
2022-08-02T19:25:01.493Z,100106.75
2022-08-02T19:27:33.208Z,100090.53
2022-08-02T19:30:07.421Z,100101.38
2022-08-02T19:32:41.645Z,100102.38
2022-08-02T19:35:30.878Z,100101.53
2022-08-02T19:38:09.592Z,100083.25
2022-08-02T19:40:41.825Z,100095.69
2022-08-02T19:44:23.900Z,100092.28
2022-08-02T19:46:02.494Z,100103.59
2022-08-02T19:48:31.403Z,100092.31
2022-08-02T19:51:02.715Z,100066.94
2022-08-02T19:53:47.460Z,100085.81
2022-08-02T19:56:25.152Z,100090.50
2022-08-02T19:58:58.802Z,100082.13
2022-08-02T20:01:38.838Z,100086.38
2022-08-02T20:04:13.386Z,100084.06
2022-08-02T20:06:46.056Z,100092.06
2022-08-02T20:09:22.959Z,100093.09
2022-08-02T20:11:54.696Z,100087.16
2022-08-02T20:14:26.793Z,100091.69
2022-08-02T20:16:58.770Z,100013.16
2022-08-02T20:19:29.603Z,100099.44
2022-08-02T20:22:09.391Z,100098.19
2022-08-02T20:24:39.440Z,100090.00
2022-08-02T20:27:08.929Z,100067.59
2022-08-02T20:29:48.617Z,100063.00
2022-08-02T20:32:23.664Z,100088.59
2022-08-02T20:34:53.317Z,100088.69
2022-08-02T20:38:00.380Z,100074.19
2022-08-02T20:40:16.644Z,100088.09
2022-08-02T20:42:48.402Z,100044.72
2022-08-02T20:45:27.098Z,100080.19
2022-08-02T20:47:58.561Z,100086.50
2022-08-02T20:50:46.491Z,100068.06
2022-08-02T20:53:23.824Z,100088.13
2022-08-02T20:55:58.128Z,100085.50
2022-08-02T20:58:28.028Z,100064.97
2022-08-02T21:00:59.439Z,100083.44
2022-08-02T21:03:39.377Z,100089.38
2022-08-02T21:06:09.912Z,100073.88
2022-08-02T21:08:39.698Z,100081.97
2022-08-02T21:11:12.745Z,100078.66
2022-08-02T21:13:47.326Z,100088.59
2022-08-02T21:16:31.726Z,100088.94
2022-08-02T21:19:07.867Z,100087.31
2022-08-02T21:21:38.736Z,100090.03
2022-08-02T21:24:11.262Z,100087.19
2022-08-02T21:26:41.913Z,100070.84
2022-08-02T21:29:10.986Z,100057.88
2022-08-02T21:31:42.605Z,100094.66
2022-08-02T21:34:26.886Z,100093.75
2022-08-02T21:36:57.070Z,100005.22
2022-08-02T21:39:25.869Z,100088.84
2022-08-02T21:41:56.044Z,100094.06
2022-08-02T21:44:25.038Z,100094.25
2022-08-02T21:46:56.097Z,100098.97
2022-08-02T21:50:09.420Z,100094.19
2022-08-02T21:52:17.669Z,100098.09
2022-08-02T21:54:46.895Z,100105.69
2022-08-02T21:57:16.909Z,100102.00
2022-08-02T21:59:46.943Z,100093.06
2022-08-02T22:02:18.153Z,100080.06
2022-08-02T22:04:48.926Z,100091.16
2022-08-02T22:07:23.693Z,100089.56
2022-08-02T22:09:53.954Z,100010.50
2022-08-02T22:12:26.291Z,100096.44
2022-08-02T22:14:56.504Z,100087.59
2022-08-02T22:17:52.107Z,100091.41
2022-08-02T22:20:20.012Z,100108.19
2022-08-02T22:22:50.166Z,100110.84
2022-08-02T22:25:26.783Z,100112.69
2022-08-02T22:28:39.087Z,100095.16
2022-08-02T22:30:57.433Z,100120.31
2022-08-02T22:33:47.428Z,100122.69
2022-08-02T22:36:31.333Z,100067.81
2022-08-02T22:39:01.737Z,100119.13
2022-08-02T22:42:01.416Z,100114.41
2022-08-02T22:44:20.147Z,100118.53
2022-08-02T22:46:50.251Z,100116.56
2022-08-02T22:49:38.466Z,100101.13
2022-08-02T22:52:12.808Z,100104.63
2022-08-02T22:54:43.413Z,100105.75
2022-08-02T22:57:12.564Z,100105.63
2022-08-02T22:59:41.741Z,100110.00
2022-08-02T23:02:11.568Z,100110.38
2022-08-02T23:04:40.304Z,100112.09
2022-08-02T23:07:10.444Z,100109.72
2022-08-02T23:09:39.191Z,100102.09
2022-08-02T23:12:08.491Z,100111.53
2022-08-02T23:14:37.488Z,100082.78
2022-08-02T23:17:23.970Z,100070.84
2022-08-02T23:19:52.967Z,100076.63
2022-08-02T23:22:29.699Z,100108.13
2022-08-02T23:25:02.079Z,100111.94
2022-08-02T23:27:31.414Z,100117.34
2022-08-02T23:30:01.208Z,100122.25
2022-08-02T23:32:30.451Z,100112.31
2022-08-02T23:34:59.562Z,100110.13
2022-08-02T23:37:57.724Z,100109.63
2022-08-02T23:40:39.359Z,100113.75
2022-08-02T23:43:13.432Z,100107.22
2022-08-02T23:45:46.089Z,100110.53
2022-08-02T23:48:15.342Z,100114.16
2022-08-02T23:50:44.113Z,100119.97
2022-08-02T23:53:14.450Z,100119.88
2022-08-02T23:55:43.221Z,100121.50
2022-08-02T23:58:13.274Z,100134.94
